createdAt,value
2018-08-06T00:00:23.234Z,20.10
2018-08-06T00:02:51.474Z,20.00
2018-08-06T00:05:19.826Z,20.00
2018-08-06T00:07:48.141Z,19.90
2018-08-06T00:10:18.945Z,20.00
2018-08-06T00:12:47.578Z,20.00
2018-08-06T00:15:16.228Z,20.00
2018-08-06T00:17:44.498Z,19.90
2018-08-06T00:20:13.611Z,19.90
2018-08-06T00:22:42.222Z,19.80
2018-08-06T00:25:11.728Z,19.80
2018-08-06T00:27:40.314Z,19.70
2018-08-06T00:30:10.074Z,19.70
2018-08-06T00:32:39.270Z,19.60
2018-08-06T00:35:07.866Z,19.60
2018-08-06T00:37:36.158Z,19.50
2018-08-06T00:40:05.155Z,19.40
2018-08-06T00:42:33.380Z,19.30
2018-08-06T00:45:01.635Z,19.30
2018-08-06T00:47:29.979Z,19.30
2018-08-06T00:49:58.191Z,19.30
2018-08-06T00:52:26.466Z,19.40
2018-08-06T00:54:54.675Z,19.30
2018-08-06T00:57:22.898Z,19.30
2018-08-06T00:59:51.121Z,19.30
2018-08-06T01:02:19.334Z,19.30
2018-08-06T01:04:47.869Z,19.30
2018-08-06T01:07:16.135Z,19.40
2018-08-06T01:09:44.371Z,19.30
2018-08-06T01:12:12.618Z,19.20
2018-08-06T01:14:40.847Z,19.10
2018-08-06T01:17:09.169Z,19.00
2018-08-06T01:19:37.394Z,18.90
2018-08-06T01:22:05.660Z,18.90
2018-08-06T01:24:33.955Z,18.90
2018-08-06T01:27:02.189Z,18.90
2018-08-06T01:56:40.765Z,18.80
2018-08-06T01:59:09.007Z,18.50
2018-08-06T02:01:37.227Z,18.40
2018-08-06T02:04:05.440Z,18.40
2018-08-06T02:06:33.707Z,18.30
2018-08-06T02:09:02.516Z,18.30
2018-08-06T02:11:30.780Z,18.40
2018-08-06T02:13:59.076Z,18.50
2018-08-06T02:16:27.280Z,18.60
2018-08-06T02:18:55.572Z,18.50
2018-08-06T02:21:23.784Z,18.60
2018-08-06T02:23:51.980Z,18.50
2018-08-06T02:26:20.194Z,18.50
2018-08-06T02:28:48.512Z,18.40
2018-08-06T02:31:16.688Z,18.40
2018-08-06T02:33:44.921Z,18.50
2018-08-06T02:36:13.129Z,18.40
2018-08-06T02:38:41.306Z,18.40
2018-08-06T02:41:09.517Z,18.40
2018-08-06T02:43:37.737Z,18.40
2018-08-06T02:46:06.508Z,18.40
2018-08-06T02:48:34.716Z,18.40
2018-08-06T02:51:02.935Z,18.30
2018-08-06T02:53:31.276Z,18.20
2018-08-06T02:55:59.540Z,18.10
2018-08-06T02:58:27.748Z,18.00
2018-08-06T03:00:55.989Z,18.00
2018-08-06T03:03:24.164Z,18.00
2018-08-06T03:05:52.746Z,18.00
2018-08-06T03:08:20.990Z,17.90
2018-08-06T03:10:49.209Z,17.90
2018-08-06T03:13:17.457Z,17.90
2018-08-06T03:15:45.753Z,17.90
2018-08-06T03:18:13.948Z,17.90
2018-08-06T03:20:42.221Z,17.80
2018-08-06T03:23:10.441Z,17.70
2018-08-06T03:28:06.697Z,17.60
2018-08-06T03:30:34.921Z,17.70
2018-08-06T03:33:03.118Z,17.70
2018-08-06T03:35:31.450Z,17.70
2018-08-06T03:37:59.649Z,17.60
2018-08-06T03:40:27.921Z,17.70
2018-08-06T03:42:56.157Z,17.60
2018-08-06T03:45:24.404Z,17.60
2018-08-06T03:47:52.645Z,17.60
2018-08-06T03:50:20.964Z,17.50
2018-08-06T03:52:49.449Z,17.50
2018-08-06T03:55:17.629Z,17.50
2018-08-06T03:57:45.893Z,17.40
2018-08-06T04:00:14.901Z,17.40
2018-08-06T04:02:43.673Z,17.40
2018-08-06T04:05:12.901Z,17.50
2018-08-06T04:07:41.118Z,17.50
2018-08-06T04:10:11.849Z,17.60
2018-08-06T04:12:40.525Z,17.50
2018-08-06T04:15:09.636Z,17.50
2018-08-06T04:17:37.913Z,17.40
2018-08-06T04:22:34.825Z,17.30
2018-08-06T04:25:03.119Z,17.30
2018-08-06T04:27:31.454Z,17.30
2018-08-06T04:32:27.737Z,17.40
2018-08-06T04:34:55.987Z,17.40
2018-08-06T04:37:24.225Z,17.40
2018-08-06T04:39:52.706Z,17.50
2018-08-06T04:42:20.986Z,17.40
2018-08-06T04:44:49.490Z,17.40
2018-08-06T04:47:17.841Z,17.30
2018-08-06T04:49:46.110Z,17.30
2018-08-06T04:52:14.410Z,17.30
2018-08-06T04:54:42.627Z,17.30
2018-08-06T04:57:10.914Z,17.40
2018-08-06T04:59:39.163Z,17.40
2018-08-06T05:02:07.405Z,17.40
2018-08-06T05:04:35.630Z,17.50
2018-08-06T05:07:03.980Z,17.50
2018-08-06T05:09:40.682Z,17.50
2018-08-06T05:12:09.158Z,17.50
2018-08-06T05:14:38.296Z,17.60
2018-08-06T05:17:07.038Z,17.60
2018-08-06T05:19:35.765Z,17.70
2018-08-06T05:22:04.117Z,17.70
2018-08-06T05:24:32.347Z,17.70
2018-08-06T05:27:00.558Z,17.80
2018-08-06T05:29:28.755Z,17.80
2018-08-06T05:31:56.962Z,17.90
2018-08-06T05:34:25.258Z,18.10
2018-08-06T05:36:53.551Z,18.10
2018-08-06T05:39:21.786Z,18.10
2018-08-06T05:41:50.158Z,18.30
2018-08-06T05:44:18.436Z,18.40
2018-08-06T05:46:46.666Z,18.60
2018-08-06T05:49:14.875Z,18.70
2018-08-06T05:51:43.075Z,18.60
2018-08-06T05:54:11.339Z,18.80
2018-08-06T05:56:39.536Z,18.90
2018-08-06T05:59:07.744Z,19.00
2018-08-06T06:01:35.970Z,18.80
2018-08-06T06:04:04.287Z,19.10
2018-08-06T06:06:32.631Z,19.30
2018-08-06T06:09:00.873Z,19.30
2018-08-06T06:11:29.191Z,19.40
2018-08-06T06:13:57.447Z,19.50
2018-08-06T06:16:26.739Z,19.60
2018-08-06T06:18:54.999Z,19.60
2018-08-06T06:21:23.230Z,19.70
2018-08-06T06:23:51.560Z,19.80
2018-08-06T06:26:19.771Z,20.00
2018-08-06T06:28:48.053Z,20.20
2018-08-06T06:31:16.528Z,20.50
2018-08-06T06:33:44.768Z,20.80
2018-08-06T06:36:13.020Z,21.00
2018-08-06T06:41:09.256Z,21.30
2018-08-06T06:43:37.638Z,21.60
2018-08-06T06:46:05.948Z,21.80
2018-08-06T06:48:34.520Z,21.90
2018-08-06T06:51:03.331Z,21.90
2018-08-06T06:53:31.556Z,22.10
2018-08-06T06:55:59.803Z,22.10
2018-08-06T06:58:27.996Z,21.90
2018-08-06T07:00:56.268Z,22.00
2018-08-06T07:03:24.485Z,22.20
2018-08-06T07:08:20.775Z,22.90
2018-08-06T07:10:49.116Z,22.80
2018-08-06T07:13:17.336Z,23.10
2018-08-06T07:15:45.564Z,23.20
2018-08-06T07:18:13.797Z,23.40
2018-08-06T07:20:42.057Z,23.50
2018-08-06T07:23:10.316Z,23.80
2018-08-06T07:25:38.608Z,24.00
2018-08-06T07:28:06.856Z,24.20
2018-08-06T07:30:35.116Z,24.40
2018-08-06T07:33:03.413Z,24.50
2018-08-06T07:35:31.644Z,24.70
2018-08-06T07:37:59.945Z,25.00
2018-08-06T07:40:28.153Z,25.10
2018-08-06T07:42:56.394Z,25.20
2018-08-06T07:45:24.632Z,25.30
2018-08-06T07:47:52.840Z,25.50
2018-08-06T07:50:24.212Z,25.70
2018-08-06T07:52:52.440Z,25.80
2018-08-06T07:55:20.645Z,26.00
2018-08-06T07:57:48.869Z,26.20
2018-08-06T08:00:19.424Z,26.30
2018-08-06T08:02:47.677Z,26.40
2018-08-06T08:05:17.161Z,26.60
2018-08-06T08:07:46.461Z,26.60
2018-08-06T08:10:17.889Z,26.70
2018-08-06T08:12:46.736Z,26.60
2018-08-06T08:15:17.781Z,26.90
2018-08-06T08:17:46.721Z,27.10
2018-08-06T08:20:16.069Z,26.80
2018-08-06T08:22:44.463Z,27.00
2018-08-06T08:25:14.933Z,26.90
2018-08-06T08:27:43.293Z,26.90
2018-08-06T08:30:12.969Z,27.20
2018-08-06T08:32:41.336Z,27.50
2018-08-06T08:35:10.267Z,27.80
2018-08-06T08:37:38.568Z,27.70
2018-08-06T08:40:09.205Z,27.80
2018-08-06T08:42:37.641Z,27.90
2018-08-06T08:45:09.046Z,28.10
2018-08-06T08:47:37.518Z,28.00
2018-08-06T08:50:07.281Z,28.10
2018-08-06T08:52:35.623Z,28.20
2018-08-06T08:55:04.102Z,28.40
2018-08-06T08:57:32.418Z,28.40
2018-08-06T09:00:00.807Z,28.10
2018-08-06T09:02:29.002Z,28.50
2018-08-06T09:04:57.238Z,28.10
2018-08-06T09:07:25.581Z,28.40
2018-08-06T09:09:53.935Z,28.60
2018-08-06T09:12:22.202Z,28.70
2018-08-06T09:14:50.451Z,28.50
2018-08-06T09:17:18.650Z,28.70
2018-08-06T09:19:46.918Z,28.70
2018-08-06T09:22:15.194Z,29.10
2018-08-06T09:24:43.446Z,29.20
2018-08-06T09:27:11.963Z,29.20
2018-08-06T09:29:40.218Z,29.20
2018-08-06T09:32:08.514Z,29.40
2018-08-06T09:34:36.839Z,29.50
2018-08-06T09:37:05.198Z,29.50
2018-08-06T09:39:33.447Z,29.30
2018-08-06T10:04:21.279Z,30.40
2018-08-06T10:06:49.638Z,30.50
2018-08-06T10:09:17.794Z,30.70
2018-08-06T10:11:46.023Z,30.70
2018-08-06T10:14:14.263Z,30.90
2018-08-06T10:16:42.532Z,31.50
2018-08-06T10:19:10.883Z,31.70
2018-08-06T10:21:39.059Z,31.90
2018-08-06T10:24:07.279Z,32.00
2018-08-06T10:26:35.527Z,32.20
2018-08-06T10:29:03.800Z,32.20
2018-08-06T10:31:31.999Z,32.10
2018-08-06T10:34:00.211Z,32.30
2018-08-06T10:36:28.440Z,32.70
2018-08-06T10:38:56.676Z,32.80
2018-08-06T10:41:24.883Z,32.80
2018-08-06T10:43:53.083Z,32.80
2018-08-06T10:46:21.293Z,32.80
2018-08-06T10:48:49.576Z,32.80
2018-08-06T10:53:45.721Z,33.20
2018-08-06T10:56:13.964Z,33.40
2018-08-06T10:58:42.169Z,33.50
2018-08-06T11:01:10.364Z,33.80
2018-08-06T11:03:38.608Z,33.40
2018-08-06T11:06:06.844Z,33.50
2018-08-06T11:08:35.080Z,33.50
2018-08-06T11:11:03.316Z,33.50
2018-08-06T11:13:31.536Z,33.30
2018-08-06T11:15:59.760Z,33.70
2018-08-06T11:18:27.977Z,33.70
2018-08-06T11:20:56.192Z,33.90
2018-08-06T11:23:24.400Z,33.80
2018-08-06T11:25:52.812Z,33.80
2018-08-06T11:28:21.103Z,33.90
2018-08-06T11:30:49.309Z,34.30
2018-08-06T11:33:17.648Z,34.10
2018-08-06T11:35:45.886Z,33.70
2018-08-06T11:38:14.112Z,33.30
2018-08-06T11:40:42.333Z,33.20
2018-08-06T11:43:10.557Z,33.00
2018-08-06T11:45:38.788Z,33.10
2018-08-06T11:48:06.992Z,33.10
2018-08-06T11:50:35.338Z,33.40
2018-08-06T11:53:03.568Z,33.50
2018-08-06T11:55:31.977Z,33.90
2018-08-06T11:58:00.189Z,34.00
2018-08-06T12:00:28.609Z,34.00
2018-08-06T12:02:56.905Z,34.30
2018-08-06T12:05:25.153Z,34.20
2018-08-06T12:07:53.365Z,34.30
2018-08-06T12:10:21.656Z,34.50
2018-08-06T12:12:50.333Z,34.10
2018-08-06T12:15:18.637Z,33.80
2018-08-06T12:17:46.849Z,33.90
2018-08-06T12:20:18.045Z,33.70
2018-08-06T12:22:47.413Z,33.70
2018-08-06T12:25:16.425Z,33.40
2018-08-06T12:27:45.289Z,33.50
2018-08-06T12:30:19.409Z,33.70
2018-08-06T12:32:48.422Z,33.90
2018-08-06T12:35:17.237Z,34.20
2018-08-06T12:37:45.925Z,34.50
2018-08-06T12:42:44.389Z,34.50
2018-08-06T12:45:13.846Z,34.50
2018-08-06T12:47:42.382Z,34.90
2018-08-06T12:50:11.785Z,34.70
2018-08-06T12:52:40.790Z,34.70
2018-08-06T12:55:10.498Z,34.60
2018-08-06T12:57:39.311Z,35.00
2018-08-06T13:00:13.583Z,35.50
2018-08-06T13:02:41.777Z,35.40
2018-08-06T13:05:10.434Z,35.70
2018-08-06T13:07:38.593Z,35.50
2018-08-06T13:10:07.598Z,35.60
2018-08-06T13:12:37.242Z,35.60
2018-08-06T13:15:06.067Z,35.60
2018-08-06T13:17:34.335Z,35.80
2018-08-06T13:20:03.231Z,35.60
2018-08-06T13:22:31.791Z,35.40
2018-08-06T13:25:00.130Z,35.30
2018-08-06T13:27:28.664Z,35.60
2018-08-06T13:29:56.894Z,36.00
2018-08-06T13:32:25.090Z,36.10
2018-08-06T13:34:53.686Z,35.80
2018-08-06T13:37:21.914Z,35.80
2018-08-06T13:57:07.224Z,35.10
2018-08-06T13:59:35.653Z,35.60
2018-08-06T14:02:03.918Z,35.50
2018-08-06T14:04:32.123Z,35.40
2018-08-06T14:07:00.415Z,35.20
2018-08-06T14:09:28.651Z,35.40
2018-08-06T14:11:56.927Z,35.30
2018-08-06T14:14:25.188Z,35.60
2018-08-06T14:16:54.068Z,35.70
2018-08-06T14:19:22.343Z,35.50
2018-08-06T14:21:50.759Z,35.60
2018-08-06T14:24:18.983Z,35.70
2018-08-06T14:26:47.196Z,35.80
2018-08-06T14:29:15.403Z,35.90
2018-08-06T14:31:43.620Z,36.10
2018-08-06T14:34:11.851Z,35.70
2018-08-06T14:36:40.060Z,35.00
2018-08-06T14:39:11.180Z,35.20
2018-08-06T14:41:39.416Z,35.40
2018-08-06T14:44:08.540Z,35.80
2018-08-06T14:46:37.917Z,36.00
2018-08-06T14:49:06.192Z,35.60
2018-08-06T14:51:34.503Z,35.80
2018-08-06T14:54:02.762Z,36.10
2018-08-06T14:56:31.013Z,36.20
2018-08-06T14:58:59.269Z,36.10
2018-08-06T15:01:27.469Z,36.30
2018-08-06T15:06:23.693Z,35.80
2018-08-06T15:08:51.993Z,34.80
2018-08-06T15:16:17.104Z,34.80
2018-08-06T15:18:45.484Z,35.20
2018-08-06T15:21:13.720Z,35.40
2018-08-06T15:23:41.998Z,35.20
2018-08-06T15:26:10.269Z,35.10
2018-08-06T15:28:38.469Z,34.90
2018-08-06T15:31:07.985Z,35.00
2018-08-06T15:33:36.228Z,35.10
2018-08-06T15:36:04.450Z,35.30
2018-08-06T15:38:32.685Z,35.40
2018-08-06T15:41:00.881Z,35.40
2018-08-06T15:43:29.172Z,35.00
2018-08-06T15:45:57.442Z,35.10
2018-08-06T15:48:25.697Z,35.30
2018-08-06T15:50:54.813Z,35.20
2018-08-06T15:53:23.034Z,35.20
2018-08-06T15:55:51.476Z,35.20
2018-08-06T15:58:19.685Z,35.20
2018-08-06T16:00:47.894Z,34.90
2018-08-06T16:03:16.085Z,35.10
2018-08-06T16:05:44.317Z,35.10
2018-08-06T16:08:12.551Z,35.10
2018-08-06T16:10:40.770Z,35.10
2018-08-06T16:13:09.041Z,35.10
2018-08-06T16:15:37.429Z,35.00
2018-08-06T16:18:06.129Z,35.00
2018-08-06T16:20:34.297Z,35.00
2018-08-06T16:23:02.515Z,34.80
2018-08-06T16:25:30.747Z,34.60
2018-08-06T16:27:58.994Z,34.60
2018-08-06T16:30:27.211Z,34.50
2018-08-06T16:32:55.566Z,34.50
2018-08-06T16:37:53.774Z,34.20
2018-08-06T16:40:21.991Z,34.40
2018-08-06T16:42:50.654Z,34.50
2018-08-06T16:45:18.961Z,34.60
2018-08-06T16:47:47.178Z,34.50
2018-08-06T16:50:16.614Z,34.50
2018-08-06T16:52:45.180Z,34.40
2018-08-06T16:55:13.299Z,34.30
2018-08-06T16:57:41.734Z,34.20
2018-08-06T17:00:13.379Z,34.20
2018-08-06T17:02:41.679Z,34.10
2018-08-06T17:05:11.714Z,34.10
2018-08-06T17:07:40.290Z,34.10
2018-08-06T17:10:11.175Z,34.10
2018-08-06T17:12:39.522Z,34.10
2018-08-06T17:15:08.883Z,33.90
2018-08-06T17:17:37.173Z,34.00
2018-08-06T17:20:09.066Z,34.00
2018-08-06T17:22:37.315Z,33.90
2018-08-06T17:25:07.147Z,33.90
2018-08-06T17:27:35.418Z,33.60
2018-08-06T17:30:04.067Z,33.60
2018-08-06T17:32:32.315Z,33.60
2018-08-06T17:35:00.558Z,33.70
2018-08-06T17:37:28.834Z,33.50
2018-08-06T17:39:57.247Z,33.50
2018-08-06T17:42:25.467Z,33.40
2018-08-06T17:44:53.686Z,33.30
2018-08-06T17:47:22.051Z,33.20
2018-08-06T17:49:50.319Z,33.20
2018-08-06T17:52:18.539Z,33.20
2018-08-06T17:54:46.768Z,33.10
2018-08-06T17:57:15.063Z,33.20
2018-08-06T17:59:43.287Z,33.10
2018-08-06T18:02:11.532Z,32.90
2018-08-06T18:04:39.827Z,33.00
2018-08-06T18:07:08.081Z,33.00
2018-08-06T18:09:36.400Z,32.90
2018-08-06T18:14:32.564Z,32.80
2018-08-06T18:17:00.771Z,32.80
2018-08-06T18:19:29.123Z,32.70
2018-08-06T18:21:57.328Z,32.70
2018-08-06T18:24:25.642Z,32.70
2018-08-06T18:26:53.740Z,32.70
2018-08-06T18:29:22.805Z,32.60
